Time;durP1;ratioP1;P1;durP2;ratioP2;P2;SDS_P1;SDS_P2;PMS_P1;PMS_P2;Temp;Humidity;BMP_temperature;BMP_pressure;BME280_temperature;BME280_humidity;BME280_pressure;Samples;Min_cycle;Max_cycle;Signal;HPM_P1;HPM_P2
2022/08/08 00:02:25;;;;;;;0.00;0.00;;;;;;;12.75;89.23;102420.03;4954312;28;20026;-66
2022/08/08 00:05:20;;;;;;;0.10;0.10;;;;;;;12.72;89.36;102420.22;4953263;28;20122;-68
2022/08/08 00:07:49;;;;;;;0.00;0.00;;;;;;;12.71;90.30;102420.31;4957111;28;20363;-67
2022/08/08 00:10:21;;;;;;;0.00;0.00;;;;;;;12.56;89.87;102387.09;4951227;28;20070;-68
2022/08/08 00:13:25;;;;;;;0.08;0.00;;;;;;;12.75;90.88;102419.19;4956087;28;20038;-66
2022/08/08 00:15:56;;;;;;;0.00;0.00;;;;;;;12.77;90.66;102424.47;4961667;28;20073;-65
2022/08/08 00:18:27;;;;;;;0.00;0.00;;;;;;;12.75;89.98;102424.56;4957634;28;20332;-66
2022/08/08 00:20:56;;;;;;;0.00;0.00;;;;;;;12.64;89.61;102425.22;4958611;28;20389;-66
2022/08/08 00:23:49;;;;;;;0.00;0.00;;;;;;;12.57;90.65;102413.97;4957793;28;20036;-65
2022/08/08 00:26:38;;;;;;;0.00;0.00;;;;;;;12.62;91.44;102420.88;4959267;28;20073;-66
2022/08/08 00:29:28;;;;;;;0.00;0.00;;;;;;;12.63;90.79;102428.88;4960448;28;20633;-66
2022/08/08 00:32:10;;;;;;;0.00;0.00;;;;;;;12.66;91.66;102419.75;4959957;28;20503;-66
2022/08/08 00:35:09;;;;;;;0.00;0.00;;;;;;;12.45;91.39;102385.94;4959396;28;20114;-66
2022/08/08 00:38:05;;;;;;;0.10;0.10;;;;;;;12.65;91.51;102420.69;4959990;28;20628;-66
2022/08/08 00:40:41;;;;;;;0.00;0.00;;;;;;;12.63;90.77;102425.31;4956479;28;20039;-65
2022/08/08 00:43:27;;;;;;;0.00;0.00;;;;;;;12.56;90.08;102423.00;4957336;28;20851;-66
2022/08/08 00:46:25;;;;;;;0.00;0.00;;;;;;;12.49;89.75;102418.97;4963839;28;20034;-65
2022/08/08 00:49:17;;;;;;;0.00;0.00;;;;;;;12.38;90.09;102414.22;4958962;28;20035;-65
2022/08/08 00:52:01;;;;;;;0.10;0.10;;;;;;;12.28;90.33;102416.59;4962190;28;20138;-65
2022/08/08 00:54:47;;;;;;;0.00;0.00;;;;;;;12.14;91.24;102408.47;4963350;28;20034;-66
2022/08/08 00:57:50;;;;;;;0.00;0.00;;;;;;;12.07;91.15;102407.97;4960338;28;20494;-67
2022/08/08 01:00:18;;;;;;;0.00;0.00;;;;;;;12.01;91.25;102400.25;4955513;28;20088;-67
2022/08/08 01:03:07;;;;;;;0.00;0.00;;;;;;;11.94;90.99;102401.53;4957805;28;20031;-67
2022/08/08 01:05:54;;;;;;;0.00;0.00;;;;;;;11.92;91.27;102404.31;4957209;28;20030;-67
2022/08/08 01:08:56;;;;;;;0.00;0.00;;;;;;;11.79;91.73;102398.78;4964405;28;20026;-67
2022/08/08 01:11:56;;;;;;;0.00;0.00;;;;;;;11.76;92.19;102395.44;4960206;28;20031;-67
2022/08/08 01:14:59;;;;;;;0.00;0.00;;;;;;;11.74;91.93;102395.50;4961746;28;20134;-67
2022/08/08 01:17:41;;;;;;;0.00;0.00;;;;;;;11.73;91.42;102401.84;4961312;28;20035;-67
2022/08/08 01:20:42;;;;;;;0.00;0.00;;;;;;;11.72;91.37;102400.09;4964931;28;20035;-67
2022/08/08 01:23:41;;;;;;;0.00;0.00;;;;;;;11.70;91.40;102404.69;4959700;28;20027;-68
2022/08/08 01:26:33;;;;;;;0.00;0.00;;;;;;;11.76;91.69;102408.88;4959890;28;20038;-68
2022/08/08 01:29:13;;;;;;;0.00;0.00;;;;;;;11.77;91.10;102411.47;4959100;28;20030;-68
2022/08/08 01:32:02;;;;;;;0.08;0.08;;;;;;;11.66;91.57;102417.47;4960869;28;20027;-68
2022/08/08 01:35:05;;;;;;;0.00;0.00;;;;;;;11.45;93.42;102416.84;4960154;28;20037;-66
2022/08/08 01:37:53;;;;;;;0.00;0.00;;;;;;;11.32;94.85;102416.69;4960529;28;20704;-65
2022/08/08 01:40:43;;;;;;;0.00;0.00;;;;;;;11.32;95.32;102415.84;4962520;28;20492;-65
2022/08/08 01:43:28;;;;;;;0.00;0.00;;;;;;;11.34;94.82;102413.94;4956398;28;20066;-65
2022/08/08 01:46:29;;;;;;;0.00;0.00;;;;;;;11.35;94.13;102413.81;4958828;28;20358;-66
2022/08/08 01:49:11;;;;;;;0.20;0.00;;;;;;;11.36;93.39;102415.56;4961416;28;20045;-65
2022/08/08 01:52:05;;;;;;;0.10;0.10;;;;;;;11.34;93.08;102419.31;4957077;28;20109;-67
2022/08/08 01:54:42;;;;;;;0.00;0.00;;;;;;;11.28;93.35;102417.81;4958314;28;20609;-65
2022/08/08 01:57:24;;;;;;;0.10;0.10;;;;;;;11.29;93.16;102410.63;4951606;28;20034;-65
2022/08/08 02:00:17;;;;;;;0.00;0.00;;;;;;;11.37;94.69;102413.75;4957132;28;20455;-66
2022/08/08 02:03:06;;;;;;;0.10;0.10;;;;;;;11.41;94.61;102417.97;4956790;28;20031;-66
2022/08/08 02:05:44;;;;;;;0.00;0.00;;;;;;;11.35;93.40;102416.50;4956393;28;20034;-65
2022/08/08 02:08:20;;;;;;;0.10;0.10;;;;;;;11.32;92.59;102405.06;4954155;28;21618;-66
2022/08/08 02:10:59;;;;;;;0.00;0.00;;;;;;;11.23;92.52;102403.78;4958787;28;20039;-66
2022/08/08 02:13:33;;;;;;;0.00;0.00;;;;;;;11.14;92.91;102402.44;4957091;28;20031;-66
2022/08/08 02:16:11;;;;;;;0.00;0.00;;;;;;;11.06;93.65;102413.63;4955285;28;20398;-66
2022/08/08 02:18:53;;;;;;;0.00;0.00;;;;;;;11.04;93.87;102420.03;4955923;28;20445;-65
2022/08/08 02:24:29;;;;;;;0.00;0.00;;;;;;;11.03;93.60;102415.63;4959006;28;20547;-65
2022/08/08 02:27:02;;;;;;;0.00;0.00;;;;;;;11.10;95.09;102411.66;4958959;28;20491;-65
2022/08/08 02:29:37;;;;;;;0.00;0.00;;;;;;;10.95;94.52;102383.78;4956937;28;20061;-67
2022/08/08 02:32:50;;;;;;;0.00;0.00;;;;;;;11.12;93.17;102414.25;4948679;28;20142;-65
2022/08/08 02:35:25;;;;;;;0.00;0.00;;;;;;;11.04;92.65;102415.53;4956821;28;20058;-65
2022/08/08 02:38:15;;;;;;;0.00;0.00;;;;;;;10.98;92.98;102415.88;4962703;28;20069;-65
2022/08/08 02:41:08;;;;;;;0.10;0.10;;;;;;;10.93;93.44;102415.25;4959888;28;20048;-65
2022/08/08 02:43:40;;;;;;;0.00;0.00;;;;;;;10.88;94.01;102406.56;4955513;28;20422;-65
2022/08/08 02:46:43;;;;;;;0.00;0.00;;;;;;;10.81;93.85;102411.41;4954711;28;20046;-65
2022/08/08 02:49:27;;;;;;;0.10;0.10;;;;;;;10.81;94.71;102416.78;4955782;28;20082;-65
2022/08/08 02:52:29;;;;;;;0.00;0.00;;;;;;;10.82;94.02;102418.53;4957022;28;20038;-65
2022/08/08 02:55:23;;;;;;;0.00;0.00;;;;;;;10.88;94.76;102414.63;4955574;28;20941;-65
2022/08/08 02:58:08;;;;;;;;;;;;;;;10.85;95.14;102413.00;4953190;28;20042;-65
2022/08/08 03:00:45;;;;;;;0.00;0.00;;;;;;;10.82;93.99;102412.28;4949722;28;19917;-65
2022/08/08 03:03:29;;;;;;;0.10;0.10;;;;;;;10.78;93.85;102416.94;4955541;28;20038;-65
2022/08/08 03:06:09;;;;;;;0.00;0.00;;;;;;;10.78;93.99;102416.94;4959348;28;20038;-65
2022/08/08 03:08:58;;;;;;;0.10;0.10;;;;;;;10.80;94.57;102415.06;4969046;28;20046;-65
2022/08/08 03:11:45;;;;;;;0.10;0.10;;;;;;;10.73;94.94;102422.53;4963518;28;20030;-65
2022/08/08 03:14:29;;;;;;;0.00;0.00;;;;;;;10.65;95.11;102416.72;4958799;28;20082;-65
2022/08/08 03:17:04;;;;;;;0.00;0.00;;;;;;;10.67;95.67;102422.91;4960016;28;20117;-65
2022/08/08 03:20:07;;;;;;;0.00;0.00;;;;;;;10.71;95.94;102423.59;4957958;28;20058;-65
2022/08/08 03:22:42;;;;;;;0.10;0.10;;;;;;;10.59;94.52;102422.41;4956429;28;20074;-65
2022/08/08 03:25:08;;;;;;;0.00;0.00;;;;;;;10.54;94.69;102417.31;4959888;28;20026;-65
2022/08/08 03:27:37;;;;;;;0.00;0.00;;;;;;;10.65;95.61;102431.03;4956647;28;20490;-65
2022/08/08 03:30:09;;;;;;;0.00;0.00;;;;;;;10.70;96.14;102427.22;4957187;28;20030;-65
2022/08/08 03:35:24;;;;;;;0.00;0.00;;;;;;;10.56;95.10;102427.94;4953561;28;20038;-66
2022/08/08 03:37:49;;;;;;;0.00;0.00;;;;;;;10.28;95.79;102407.88;4960353;28;20169;-65
2022/08/08 03:40:19;;;;;;;0.10;0.10;;;;;;;10.42;96.14;102434.94;4956796;28;20116;-64
2022/08/08 03:42:45;;;;;;;0.00;0.00;;;;;;;10.36;96.48;102430.69;4958195;28;20169;-65
2022/08/08 03:45:19;;;;;;;0.00;0.00;;;;;;;10.33;95.91;102430.84;4955027;28;20042;-65
2022/08/08 03:47:53;;;;;;;;;;;;;;;10.25;96.67;102429.50;4954243;28;20765;-67
2022/08/08 03:50:18;;;;;;;0.00;0.00;;;;;;;10.23;96.76;102432.28;4958208;28;20313;-67
2022/08/08 03:52:44;;;;;;;0.10;0.10;;;;;;;10.16;96.88;102434.41;4953583;28;20043;-67
2022/08/08 03:55:14;;;;;;;0.00;0.00;;;;;;;10.22;97.56;102433.22;4954001;28;20125;-67
2022/08/08 03:57:51;;;;;;;0.10;0.10;;;;;;;10.19;97.31;102434.25;4952624;28;20537;-67
2022/08/08 04:00:18;;;;;;;0.00;0.00;;;;;;;10.20;97.41;102432.44;4957446;28;20042;-67
2022/08/08 04:02:52;;;;;;;0.00;0.00;;;;;;;10.23;97.41;102439.44;4953195;28;20138;-67
2022/08/08 04:05:18;;;;;;;0.00;0.00;;;;;;;10.32;98.07;102439.00;4953948;28;20482;-67
2022/08/08 04:07:43;;;;;;;0.10;0.10;;;;;;;10.23;97.49;102417.97;4956193;28;20097;-67
2022/08/08 04:10:09;;;;;;;0.10;0.10;;;;;;;10.40;96.63;102442.19;4951445;28;20031;-67
2022/08/08 04:12:34;;;;;;;0.10;0.10;;;;;;;10.36;95.70;102438.75;4952751;28;20592;-67
2022/08/08 04:15:00;;;;;;;0.00;0.00;;;;;;;10.37;96.04;102453.06;4954323;28;20490;-67
2022/08/08 04:17:26;;;;;;;0.10;0.10;;;;;;;10.34;96.01;102446.00;4956668;28;20030;-65
2022/08/08 04:19:51;;;;;;;0.08;0.08;;;;;;;10.39;96.37;102443.13;4955565;28;20031;-65
2022/08/08 04:22:16;;;;;;;0.10;0.10;;;;;;;10.37;95.68;102439.63;4954742;28;21747;-67
2022/08/08 04:24:42;;;;;;;0.00;0.00;;;;;;;10.39;95.54;102445.81;4949768;28;20476;-67
2022/08/08 04:27:07;;;;;;;0.10;0.10;;;;;;;10.19;95.53;102420.84;4955108;28;20031;-67
2022/08/08 04:29:32;;;;;;;0.10;0.10;;;;;;;10.35;95.50;102441.53;4954538;28;20047;-67
2022/08/08 04:31:58;;;;;;;0.00;0.00;;;;;;;10.45;95.81;102447.31;4953094;28;20386;-67
2022/08/08 04:34:23;;;;;;;0.10;0.10;;;;;;;10.53;96.26;102457.66;4961431;28;20019;-67
2022/08/08 04:36:48;;;;;;;0.00;0.00;;;;;;;10.58;96.99;102455.59;4955148;28;20105;-67
2022/08/08 04:39:14;;;;;;;0.00;0.00;;;;;;;10.67;96.05;102462.31;4949214;28;20034;-67
2022/08/08 04:41:39;;;;;;;0.10;0.10;;;;;;;10.58;95.20;102459.16;4950818;28;20061;-67
2022/08/08 04:44:04;;;;;;;0.00;0.00;;;;;;;10.53;95.44;102471.06;4945479;28;20444;-67
2022/08/08 04:46:31;;;;;;;0.00;0.00;;;;;;;10.45;96.21;102469.69;4950294;28;20363;-67
2022/08/08 04:48:56;;;;;;;0.00;0.00;;;;;;;10.47;96.93;102473.13;4954982;28;20027;-67
2022/08/08 04:51:21;;;;;;;0.00;0.00;;;;;;;10.53;97.52;102474.66;4950961;28;20731;-66
2022/08/08 04:53:47;;;;;;;0.05;0.05;;;;;;;10.50;96.96;102472.97;4957978;28;20030;-66
2022/08/08 04:56:12;;;;;;;0.10;0.10;;;;;;;10.56;97.47;102474.50;4957246;28;21877;-67
2022/08/08 04:58:37;;;;;;;0.10;0.10;;;;;;;10.60;97.33;102484.09;4959778;28;20053;-70
2022/08/08 05:01:03;;;;;;;0.08;0.08;;;;;;;10.68;97.97;102488.22;4955990;28;20026;-66
2022/08/08 05:03:28;;;;;;;0.00;0.00;;;;;;;10.72;98.54;102490.69;4956850;28;20035;-63
2022/08/08 05:05:53;;;;;;;0.00;0.00;;;;;;;10.76;97.68;102491.38;4963127;28;20654;-64
2022/08/08 05:08:19;;;;;;;0.00;0.00;;;;;;;10.90;97.67;102494.19;4960338;28;20030;-64
2022/08/08 05:10:44;;;;;;;0.10;0.10;;;;;;;11.06;97.74;102501.47;4966558;28;20212;-64
2022/08/08 05:13:09;;;;;;;0.00;0.00;;;;;;;11.14;96.95;102498.34;4956868;28;20145;-64
2022/08/08 05:15:35;;;;;;;0.00;0.00;;;;;;;11.27;96.58;102503.94;4963357;28;20409;-64
2022/08/08 05:18:00;;;;;;;0.10;0.10;;;;;;;11.42;96.94;102505.78;4958162;28;20418;-64
2022/08/08 05:20:25;;;;;;;0.00;0.00;;;;;;;11.58;98.00;102503.13;4967539;28;20030;-64
2022/08/08 05:22:51;;;;;;;0.00;0.00;;;;;;;11.73;97.25;102492.47;4969744;28;20518;-64
2022/08/08 05:25:16;;;;;;;0.00;0.00;;;;;;;11.82;96.83;102487.44;4963795;28;20430;-64
2022/08/08 05:27:42;;;;;;;0.00;0.00;;;;;;;11.91;97.17;102499.47;4966799;28;20494;-64
2022/08/08 05:30:09;;;;;;;0.10;0.10;;;;;;;11.98;97.70;102494.59;4960753;28;20026;-64
2022/08/08 05:32:36;;;;;;;0.00;0.00;;;;;;;12.10;98.00;102495.75;4962823;28;20042;-64
2022/08/08 05:35:02;;;;;;;0.00;0.00;;;;;;;12.21;98.73;102492.44;4959904;28;20023;-64
2022/08/08 05:37:30;;;;;;;0.00;0.00;;;;;;;12.32;98.54;102498.06;4967215;28;20030;-64
2022/08/08 05:39:55;;;;;;;0.00;0.00;;;;;;;12.29;99.67;102474.91;4963635;28;20077;-64
2022/08/08 05:42:37;;;;;;;0.10;0.10;;;;;;;12.57;99.74;102502.88;4963092;28;20037;-64
2022/08/08 05:45:03;;;;;;;0.00;0.00;;;;;;;12.75;100.00;102508.13;4963136;28;20113;-64
2022/08/08 05:47:28;;;;;;;0.00;0.00;;;;;;;12.94;100.00;102509.69;4957195;28;20042;-64
2022/08/08 05:49:55;;;;;;;0.00;0.00;;;;;;;13.12;100.00;102504.97;4964607;28;20036;-67
2022/08/08 05:52:20;;;;;;;0.00;0.00;;;;;;;13.31;100.00;102510.94;4960511;28;20034;-67
2022/08/08 05:54:45;;;;;;;0.00;0.00;;;;;;;13.50;99.65;102513.41;4957811;28;20042;-69
2022/08/08 05:57:14;;;;;;;0.00;0.00;;;;;;;13.68;100.00;102515.00;4960347;28;20030;-67
2022/08/08 05:59:41;;;;;;;0.00;0.00;;;;;;;13.72;99.63;102490.41;4958170;28;20098;-64
2022/08/08 06:03:09;;;;;;;0.05;0.05;;;;;;;14.08;99.64;102510.56;4961031;28;20073;-67
2022/08/08 06:05:03;;;;;;;0.00;0.00;;;;;;;14.35;98.54;102509.69;4959520;28;20405;-67
2022/08/08 06:07:31;;;;;;;0.00;0.00;;;;;;;14.54;97.63;102506.63;4961312;28;20030;-67
2022/08/08 06:09:58;;;;;;;0.00;0.00;;;;;;;14.77;96.90;102506.00;4964814;28;20402;-67
2022/08/08 06:12:23;;;;;;;0.10;0.10;;;;;;;14.89;97.07;102496.19;4955912;28;20035;-64
2022/08/08 06:14:48;;;;;;;0.10;0.10;;;;;;;15.13;96.65;102507.13;4961274;28;20037;-64
2022/08/08 06:17:14;;;;;;;0.03;0.03;;;;;;;15.33;96.18;102516.53;4960891;28;20038;-64
2022/08/08 06:19:40;;;;;;;0.00;0.00;;;;;;;15.51;95.36;102521.59;4961099;28;20085;-64
2022/08/08 06:22:05;;;;;;;0.03;0.03;;;;;;;15.70;95.39;102513.84;4959216;28;20030;-64
2022/08/08 06:24:31;;;;;;;0.10;0.10;;;;;;;15.88;94.31;102522.50;4959355;28;20031;-64
2022/08/08 06:27:02;;;;;;;0.00;0.00;;;;;;;16.08;93.05;102517.44;4960613;28;20038;-64
2022/08/08 06:29:34;;;;;;;0.10;0.10;;;;;;;16.31;93.46;102526.56;4964694;28;20038;-64
2022/08/08 06:32:01;;;;;;;0.00;0.00;;;;;;;16.50;91.93;102533.28;4962724;28;20042;-64
2022/08/08 06:34:28;;;;;;;0.00;0.00;;;;;;;16.69;91.20;102526.44;4961390;28;20030;-65
2022/08/08 06:36:55;;;;;;;0.00;0.00;;;;;;;16.81;90.65;102524.63;4963195;28;20026;-65
2022/08/08 06:39:21;;;;;;;0.00;0.00;;;;;;;16.84;90.12;102513.53;4958476;28;20410;-64
2022/08/08 06:41:55;;;;;;;0.00;0.00;;;;;;;17.02;89.29;102532.97;4958119;28;20046;-64
2022/08/08 06:44:23;;;;;;;0.00;0.00;;;;;;;17.12;87.67;102533.97;4960140;28;20061;-65
2022/08/08 06:46:49;;;;;;;0.00;0.00;;;;;;;17.24;86.23;102529.41;4959537;28;20126;-65
2022/08/08 06:49:14;;;;;;;0.03;0.03;;;;;;;17.36;85.58;102536.56;4963155;28;20035;-64
2022/08/08 06:51:39;;;;;;;0.00;0.00;;;;;;;17.49;84.50;102531.00;4961211;28;20479;-64
2022/08/08 06:54:05;;;;;;;0.00;0.00;;;;;;;17.63;83.59;102527.16;4962522;28;20462;-65
2022/08/08 06:56:30;;;;;;;0.00;0.00;;;;;;;17.76;84.32;102527.03;4964401;28;20038;-65
2022/08/08 06:58:56;;;;;;;0.00;0.00;;;;;;;17.87;81.01;102531.63;4959073;28;20045;-64
2022/08/08 07:01:24;;;;;;;0.00;0.00;;;;;;;18.02;82.22;102515.03;4959782;28;20481;-64
2022/08/08 07:03:59;;;;;;;0.00;0.00;;;;;;;18.24;82.59;102531.28;4959147;28;20467;-63
2022/08/08 07:06:27;;;;;;;0.00;0.00;;;;;;;18.35;79.71;102529.53;4956835;28;20425;-64
2022/08/08 07:08:57;;;;;;;0.00;0.00;;;;;;;18.40;78.33;102527.28;4962439;28;20112;-64
2022/08/08 07:11:28;;;;;;;0.00;0.00;;;;;;;18.51;79.16;102532.66;4957955;28;20038;-64
2022/08/08 07:13:58;;;;;;;0.00;0.00;;;;;;;18.44;78.11;102488.81;4964284;28;20040;-63
2022/08/08 07:16:34;;;;;;;0.00;0.00;;;;;;;18.83;78.27;102531.75;4963507;28;20034;-63
2022/08/08 07:19:18;;;;;;;0.00;0.00;;;;;;;18.95;77.23;102540.75;4968276;28;20034;-64
2022/08/08 07:21:56;;;;;;;;;;;;;;;18.81;75.80;102549.19;4958815;28;20530;-63
2022/08/08 07:24:29;;;;;;;0.00;0.00;;;;;;;18.95;76.07;102545.28;4965319;28;19922;-64
2022/08/08 07:26:57;;;;;;;0.00;0.00;;;;;;;19.09;75.58;102546.81;4958554;28;20808;-64
2022/08/08 07:29:23;;;;;;;0.00;0.00;;;;;;;19.20;75.75;102554.06;4964761;28;20027;-64
2022/08/08 07:31:48;;;;;;;0.00;0.00;;;;;;;19.33;74.24;102547.38;4961881;28;20515;-64
2022/08/08 07:34:15;;;;;;;0.00;0.00;;;;;;;19.38;74.15;102549.72;4966299;28;20027;-63
2022/08/08 07:36:42;;;;;;;0.00;0.00;;;;;;;19.53;73.14;102550.22;4959984;28;20110;-63
2022/08/08 07:39:07;;;;;;;0.00;0.00;;;;;;;19.55;72.13;102553.66;4957121;28;20034;-63
2022/08/08 07:41:35;;;;;;;0.00;0.00;;;;;;;19.64;71.72;102555.53;4962363;28;20041;-64
2022/08/08 07:44:03;;;;;;;0.00;0.00;;;;;;;19.66;72.60;102555.41;4955959;28;20424;-63
2022/08/08 07:46:28;;;;;;;0.00;0.00;;;;;;;19.76;70.19;102550.84;4958248;28;20030;-63
2022/08/08 07:48:53;;;;;;;0.00;0.00;;;;;;;19.77;70.00;102551.72;4962274;28;20065;-64
2022/08/08 07:51:19;;;;;;;0.00;0.00;;;;;;;19.80;71.97;102551.44;4962847;28;20031;-63
2022/08/08 07:53:50;;;;;;;0.00;0.00;;;;;;;19.90;71.15;102559.69;4959530;28;20031;-63
2022/08/08 07:56:16;;;;;;;0.00;0.00;;;;;;;20.05;70.34;102560.16;4952382;28;20035;-63
2022/08/08 07:58:47;;;;;;;0.00;0.00;;;;;;;20.04;69.21;102558.44;4961086;28;20467;-64
2022/08/08 08:01:14;;;;;;;0.00;0.00;;;;;;;20.16;70.52;102554.56;4957977;28;20051;-63
2022/08/08 08:03:46;;;;;;;0.00;0.00;;;;;;;20.18;70.78;102568.06;4962761;28;20030;-67
2022/08/08 08:06:12;;;;;;;0.00;0.00;;;;;;;20.41;68.33;102548.69;4960976;28;20394;-68
2022/08/08 08:08:53;;;;;;;0.00;0.00;;;;;;;20.57;68.10;102559.03;4958531;28;20038;-68
2022/08/08 08:11:22;;;;;;;0.00;0.00;;;;;;;20.59;67.01;102568.78;4962489;28;20030;-67
2022/08/08 08:13:53;;;;;;;0.00;0.00;;;;;;;20.71;67.30;102566.78;4963404;28;20110;-68
2022/08/08 08:16:24;;;;;;;0.00;0.00;;;;;;;20.57;66.83;102559.03;4955472;28;20074;-67
2022/08/08 08:18:58;;;;;;;0.00;0.00;;;;;;;20.73;66.63;102570.22;4958067;28;20038;-68
2022/08/08 08:21:34;;;;;;;0.00;0.00;;;;;;;20.68;66.59;102576.13;4963734;28;20027;-64
2022/08/08 08:24:00;;;;;;;0.00;0.00;;;;;;;20.84;66.98;102569.25;4956625;28;20110;-63
2022/08/08 08:26:25;;;;;;;0.00;0.00;;;;;;;20.87;66.11;102573.56;4957879;28;20046;-64
2022/08/08 08:28:50;;;;;;;0.00;0.00;;;;;;;20.78;66.56;102567.97;4963075;28;20058;-64
2022/08/08 08:31:15;;;;;;;0.00;0.00;;;;;;;21.03;66.64;102562.88;4960985;28;20086;-64
2022/08/08 08:33:41;;;;;;;0.00;0.00;;;;;;;21.27;65.80;102578.78;4962811;28;20066;-63
2022/08/08 08:36:07;;;;;;;0.00;0.00;;;;;;;21.38;64.28;102572.28;4961238;28;20031;-64
2022/08/08 08:38:33;;;;;;;0.00;0.00;;;;;;;21.39;63.84;102574.00;4961681;28;20391;-64
2022/08/08 08:40:59;;;;;;;0.00;0.00;;;;;;;21.50;65.05;102574.81;4960004;28;20440;-67
2022/08/08 08:43:25;;;;;;;0.00;0.00;;;;;;;21.59;63.46;102576.66;4961030;28;20241;-67
2022/08/08 08:45:52;;;;;;;0.00;0.00;;;;;;;21.68;64.70;102573.06;4965221;28;20034;-67
2022/08/08 08:48:18;;;;;;;0.00;0.00;;;;;;;21.83;61.36;102578.00;4964184;28;20394;-68
2022/08/08 08:50:46;;;;;;;0.00;0.00;;;;;;;21.82;61.71;102579.91;4965176;28;20062;-64
2022/08/08 08:53:12;;;;;;;0.00;0.00;;;;;;;21.92;61.75;102588.03;4957310;28;20516;-64
2022/08/08 08:55:38;;;;;;;0.00;0.00;;;;;;;22.04;62.93;102580.50;4965484;28;20031;-64
2022/08/08 08:58:05;;;;;;;0.00;0.00;;;;;;;22.14;60.10;102581.28;4967108;28;20031;-63
2022/08/08 09:00:32;;;;;;;0.00;0.00;;;;;;;22.15;59.22;102591.19;4963784;28;20034;-63
2022/08/08 09:02:59;;;;;;;0.00;0.00;;;;;;;22.12;57.85;102566.03;4963465;28;20057;-64
2022/08/08 09:05:26;;;;;;;0.00;0.00;;;;;;;22.20;57.89;102584.41;4967846;28;20456;-68
2022/08/08 09:07:52;;;;;;;0.00;0.00;;;;;;;22.22;58.50;102583.25;4966708;28;20037;-68
2022/08/08 09:10:18;;;;;;;0.00;0.00;;;;;;;22.38;60.96;102587.16;4969942;28;20031;-67
2022/08/08 09:12:45;;;;;;;0.00;0.00;;;;;;;22.51;59.36;102584.94;4966271;28;20431;-68
2022/08/08 09:15:11;;;;;;;0.00;0.00;;;;;;;22.69;57.76;102589.53;4969715;28;20394;-67
2022/08/08 09:17:38;;;;;;;0.00;0.00;;;;;;;22.77;56.77;102586.88;4977409;28;20031;-68
2022/08/08 09:20:04;;;;;;;0.00;0.00;;;;;;;22.94;58.99;102579.63;4970414;28;20125;-68
2022/08/08 09:22:30;;;;;;;0.00;0.00;;;;;;;22.84;58.15;102582.47;4965030;28;20031;-68
2022/08/08 09:24:55;;;;;;;0.00;0.00;;;;;;;22.89;58.30;102579.28;4965141;28;20105;-68
2022/08/08 09:27:21;;;;;;;0.00;0.00;;;;;;;22.80;57.14;102578.31;4959472;28;20038;-67
2022/08/08 09:30:22;;;;;;;0.00;0.00;;;;;;;23.01;59.54;102579.88;4965788;28;20398;-67
2022/08/08 09:32:54;;;;;;;0.00;0.00;;;;;;;23.21;55.85;102583.25;4957238;28;20034;-67
2022/08/08 09:35:27;;;;;;;0.00;0.00;;;;;;;23.14;54.71;102582.19;4966958;28;20146;-64
2022/08/08 09:37:54;;;;;;;0.00;0.00;;;;;;;23.19;55.55;102577.94;4960703;28;20371;-64
2022/08/08 09:40:21;;;;;;;0.00;0.00;;;;;;;23.35;56.02;102585.44;4962563;28;20410;-64
2022/08/08 09:43:01;;;;;;;0.00;0.00;;;;;;;23.34;52.03;102578.25;4947113;28;20105;-64
2022/08/08 09:45:40;;;;;;;0.00;0.00;;;;;;;23.64;53.58;102578.72;4961832;28;20034;-64
2022/08/08 09:48:08;;;;;;;0.00;0.00;;;;;;;23.72;54.23;102541.38;4960981;28;20031;-64
2022/08/08 09:50:33;;;;;;;0.00;0.00;;;;;;;24.10;55.94;102567.41;4960967;28;20035;-64
2022/08/08 09:53:01;;;;;;;0.00;0.00;;;;;;;24.24;54.21;102568.66;4959752;28;20375;-67
2022/08/08 09:55:29;;;;;;;0.00;0.00;;;;;;;24.41;52.74;102583.25;4965346;28;20497;-67
2022/08/08 09:58:20;;;;;;;0.00;0.00;;;;;;;24.24;47.40;102578.78;4967939;28;21003;-67
2022/08/08 10:00:47;;;;;;;0.00;0.00;;;;;;;24.20;50.78;102582.88;4963238;28;20111;-68
2022/08/08 10:03:14;;;;;;;0.00;0.00;;;;;;;24.26;50.42;102580.31;4963135;28;20560;-68
2022/08/08 10:05:40;;;;;;;0.00;0.00;;;;;;;23.93;50.45;102580.22;4960937;28;20066;-67
2022/08/08 10:08:06;;;;;;;0.00;0.00;;;;;;;23.57;51.52;102574.94;4965485;28;20035;-67
2022/08/08 10:10:40;;;;;;;0.00;0.00;;;;;;;23.35;51.53;102579.97;4962439;28;20448;-67
2022/08/08 10:13:18;;;;;;;0.00;0.00;;;;;;;23.12;51.47;102582.34;4962835;28;20104;-64
2022/08/08 10:15:49;;;;;;;0.00;0.00;;;;;;;23.07;52.69;102581.94;4962644;28;20054;-63
2022/08/08 10:18:34;;;;;;;0.00;0.00;;;;;;;22.88;52.21;102583.88;4956092;28;20096;-63
2022/08/08 10:21:11;;;;;;;0.00;0.00;;;;;;;23.29;53.43;102577.00;4966562;28;20553;-63
2022/08/08 10:23:39;;;;;;;0.00;0.00;;;;;;;23.99;53.36;102581.47;4966026;28;20211;-66
2022/08/08 10:26:05;;;;;;;0.00;0.00;;;;;;;24.32;51.40;102586.16;4956626;28;20057;-66
2022/08/08 10:28:31;;;;;;;0.00;0.00;;;;;;;24.22;50.22;102586.31;4960766;28;20035;-66
2022/08/08 10:30:58;;;;;;;0.00;0.00;;;;;;;23.87;50.75;102586.38;4965168;28;20085;-67
2022/08/08 10:33:31;;;;;;;0.00;0.00;;;;;;;23.72;51.09;102582.50;4967569;28;20105;-66
2022/08/08 10:36:00;;;;;;;0.00;0.00;;;;;;;23.48;51.42;102553.97;4964033;28;20553;-66
2022/08/08 10:38:29;;;;;;;0.00;0.00;;;;;;;23.96;51.43;102576.28;4964881;28;20401;-66
2022/08/08 10:41:01;;;;;;;0.00;0.00;;;;;;;23.65;49.03;102571.34;4958526;28;20382;-66
2022/08/08 10:43:36;;;;;;;0.00;0.00;;;;;;;23.59;50.07;102545.47;4961755;28;20037;-74
2022/08/08 10:46:02;;;;;;;0.00;0.00;;;;;;;24.19;49.52;102571.06;4964800;28;20093;-66
2022/08/08 10:48:34;;;;;;;0.00;0.00;;;;;;;24.99;47.66;102569.56;4964295;28;20525;-66
2022/08/08 10:51:10;;;;;;;0.00;0.00;;;;;;;25.51;47.31;102569.31;4958894;28;20031;-66
2022/08/08 10:53:35;;;;;;;0.00;0.00;;;;;;;25.58;46.76;102564.78;4962002;28;20023;-66
2022/08/08 10:56:01;;;;;;;0.00;0.00;;;;;;;25.22;47.58;102560.56;4966049;28;20042;-66
2022/08/08 10:58:27;;;;;;;0.00;0.00;;;;;;;24.88;47.37;102569.06;4965262;28;20113;-66
2022/08/08 11:00:54;;;;;;;0.00;0.00;;;;;;;24.64;47.94;102563.34;4964106;28;20042;-66
2022/08/08 11:03:19;;;;;;;0.00;0.00;;;;;;;24.75;48.08;102564.09;4963853;28;20058;-66
2022/08/08 11:05:48;;;;;;;0.00;0.00;;;;;;;24.95;50.38;102568.19;4968423;28;20097;-66
2022/08/08 11:08:21;;;;;;;0.00;0.00;;;;;;;25.15;48.40;102554.94;4964973;28;20022;-66
2022/08/08 11:10:46;;;;;;;0.00;0.00;;;;;;;25.54;48.17;102560.69;4967571;28;20138;-66
2022/08/08 11:13:19;;;;;;;0.00;0.00;;;;;;;25.88;46.06;102559.50;4966426;28;23905;-66
2022/08/08 11:15:44;;;;;;;0.00;0.00;;;;;;;26.20;44.94;102564.00;4979728;28;20030;-67
2022/08/08 11:18:10;;;;;;;0.00;0.00;;;;;;;26.65;45.98;102555.03;4966355;28;20375;-67
2022/08/08 11:20:35;;;;;;;0.00;0.00;;;;;;;26.72;44.38;102556.00;4967076;28;20070;-66
2022/08/08 11:23:01;;;;;;;0.00;0.00;;;;;;;27.44;42.44;102558.38;4962968;28;20505;-67
2022/08/08 11:25:31;;;;;;;0.00;0.00;;;;;;;27.72;41.17;102549.44;4966430;28;20035;-67
2022/08/08 11:27:58;;;;;;;0.00;0.00;;;;;;;28.02;39.66;102554.91;4968317;28;20118;-67
2022/08/08 11:30:27;;;;;;;0.00;0.00;;;;;;;28.05;39.97;102547.06;4967148;28;20069;-67
2022/08/08 11:32:57;;;;;;;0.00;0.00;;;;;;;28.33;40.22;102540.81;4969987;28;20416;-67
2022/08/08 11:35:24;;;;;;;0.00;0.00;;;;;;;28.66;39.67;102542.13;4961444;28;20117;-67
2022/08/08 11:37:49;;;;;;;0.00;0.00;;;;;;;28.26;39.90;102537.97;4961469;28;20027;-67
2022/08/08 11:40:15;;;;;;;0.00;0.00;;;;;;;27.51;40.32;102512.50;4964364;28;20097;-67
2022/08/08 11:42:41;;;;;;;0.00;0.00;;;;;;;27.50;40.78;102535.59;4964438;28;20038;-67
2022/08/08 11:45:08;;;;;;;0.00;0.00;;;;;;;26.91;42.99;102535.34;4962200;28;20534;-66
2022/08/08 11:47:34;;;;;;;0.00;0.00;;;;;;;26.61;42.89;102537.16;4961876;28;20042;-65
2022/08/08 11:50:05;;;;;;;0.00;0.00;;;;;;;27.18;41.16;102527.47;4963819;28;20035;-66
2022/08/08 11:52:31;;;;;;;0.00;0.00;;;;;;;27.97;40.26;102531.50;4956202;28;20031;-67
2022/08/08 11:54:56;;;;;;;0.00;0.00;;;;;;;28.20;41.37;102544.28;4962815;28;20042;-68
2022/08/08 11:57:26;;;;;;;0.00;0.00;;;;;;;28.14;38.94;102534.03;4963215;28;20023;-68
2022/08/08 11:59:51;;;;;;;0.00;0.00;;;;;;;28.22;39.47;102531.13;4962578;28;20031;-68